KALM/ALM METAR and TAF weather

Enter ICAO airport designator
Station Type Date Time Source
KALM METAR 2022/06/27 08:55 UTC NOAA

KALM 270855Z AUTO 32007KT 10SM FEW100 23/12 A3028 RMK AO2


Station Type Date Time Source
KALM Decoded METAR 2022/06/27 08:55 UTC NOAA

Alamogordo-White, NM, United States (KALM) 32-50N 105-59W
Jun 27, 2022 - 04:55 AM EDT / 2022.06.27 0855 UTC
Wind: from the NW (320 degrees) at 8 MPH (7 KT):0
Visibility: 10 mile(s):0
Sky conditions: mostly clear
Temperature: 73 F (23 C)
Dew Point: 53 F (12 C)
Relative Humidity: 49%
Pressure (altimeter): 30.28 in. Hg (1025 hPa)
ob: KALM 270855Z AUTO 32007KT 10SM FEW100 23/12 A3028 RMK AO2
cycle: 9

Station Type Date Time Source
KALM TAF UTC NOAA

Error!

Example: see airport list